Time;durP1;ratioP1;P1;durP2;ratioP2;P2;SDS_P1;SDS_P2;PMS_P1;PMS_P2;Temp;Humidity;BMP_temperature;BMP_pressure;BME280_temperature;BME280_humidity;BME280_pressure;Samples;Min_cycle;Max_cycle;Signal;HPM_P1;HPM_P2
2023/01/11 00:01:33;;;;;;;;;3.50;1.25;;;;;;;;5097190;27;45375;-66
2023/01/11 00:03:59;;;;;;;;;1.00;1.00;;;;;;;;5097659;27;45387;-66
2023/01/11 00:06:24;;;;;;;;;2.00;1.00;;;;;;;;5097682;27;45797;-66
2023/01/11 00:08:49;;;;;;;;;1.00;1.00;;;;;;;;5056566;27;47334;-67
2023/01/11 00:11:15;;;;;;;;;1.00;1.00;;;;;;;;5056902;28;45463;-67
2023/01/11 00:13:41;;;;;;;;;2.50;0.75;;;;;;;;5056700;28;45447;-67
2023/01/11 00:16:06;;;;;;;;;1.75;1.00;;;;;;;;5057119;28;45290;-67
2023/01/11 00:18:31;;;;;;;;;1.00;1.00;;;;;;;;5056295;28;46723;-67
2023/01/11 00:20:59;;;;;;;;;1.50;1.00;;;;;;;;5056584;28;45416;-67
2023/01/11 00:23:24;;;;;;;;;1.00;1.00;;;;;;;;5056365;27;45523;-67
2023/01/11 00:25:49;;;;;;;;;1.25;1.00;;;;;;;;5060383;28;45432;-67
2023/01/11 00:28:15;;;;;;;;;1.50;1.00;;;;;;;;5059049;27;45676;-67
2023/01/11 00:30:40;;;;;;;;;1.00;1.00;;;;;;;;5059769;28;45460;-66
2023/01/11 00:33:05;;;;;;;;;1.50;1.00;;;;;;;;5060529;28;45386;-67
2023/01/11 00:35:31;;;;;;;;;2.75;1.00;;;;;;;;5060211;28;45540;-66
2023/01/11 00:37:56;;;;;;;;;0.50;0.50;;;;;;;;5059890;28;46159;-66
2023/01/11 00:40:23;;;;;;;;;1.50;1.00;;;;;;;;5059827;28;45455;-66
2023/01/11 00:48:15;;;;;;;;;1.00;1.00;;;;;;;;5059598;28;45828;-66
2023/01/11 00:50:40;;;;;;;;;1.25;1.25;;;;;;;;5059639;28;45619;-66
2023/01/11 00:53:06;;;;;;;;;1.00;1.00;;;;;;;;5059959;28;45436;-66
2023/01/11 00:55:32;;;;;;;;;2.00;2.00;;;;;;;;5060009;28;45356;-66
2023/01/11 00:57:58;;;;;;;;;1.00;1.00;;;;;;;;5059520;27;46318;-66
2023/01/11 01:00:23;;;;;;;;;3.50;2.00;;;;;;;;5079851;28;45396;-66
2023/01/11 01:02:48;;;;;;;;;0.00;0.00;;;;;;;;5080244;28;45368;-66
2023/01/11 01:05:14;;;;;;;;;0.00;0.00;;;;;;;;5079934;28;45342;-66
2023/01/11 01:07:40;;;;;;;;;0.25;0.25;;;;;;;;5079693;28;46592;-66
2023/01/11 01:10:05;;;;;;;;;1.25;1.00;;;;;;;;5079831;28;45217;-66
2023/01/11 01:15:16;;;;;;;;;0.75;0.75;;;;;;;;5068997;28;45369;-66
2023/01/11 01:17:41;;;;;;;;;0.00;0.00;;;;;;;;5059287;28;46639;-66
2023/01/11 01:20:06;;;;;;;;;1.25;0.25;;;;;;;;5059162;28;45324;-66
2023/01/11 01:22:31;;;;;;;;;0.00;0.00;;;;;;;;5059441;28;45432;-67
2023/01/11 01:24:57;;;;;;;;;3.00;0.00;;;;;;;;5059576;28;45439;-66
2023/01/11 01:27:22;;;;;;;;;0.00;0.00;;;;;;;;5059170;28;46450;-68
2023/01/11 01:29:47;;;;;;;;;3.00;0.75;;;;;;;;5058990;28;45467;-68
2023/01/11 01:32:12;;;;;;;;;0.00;0.00;;;;;;;;5058720;27;45407;-68
2023/01/11 01:34:37;;;;;;;;;0.00;0.00;;;;;;;;5059699;28;45359;-68
2023/01/11 01:37:04;;;;;;;;;0.00;0.00;;;;;;;;5057729;28;46352;-68
2023/01/11 01:39:29;;;;;;;;;0.00;0.00;;;;;;;;5059118;28;45604;-69
2023/01/11 01:41:54;;;;;;;;;0.25;0.00;;;;;;;;5058962;28;45527;-68
2023/01/11 01:44:38;;;;;;;;;1.25;0.75;;;;;;;;5058922;28;45427;-68
2023/01/11 01:47:04;;;;;;;;;0.25;0.25;;;;;;;;5040329;28;46373;-68
2023/01/11 01:49:29;;;;;;;;;0.00;0.00;;;;;;;;5058981;28;45490;-69
2023/01/11 01:51:55;;;;;;;;;0.50;0.00;;;;;;;;5059006;28;45462;-68
2023/01/11 01:54:26;;;;;;;;;0.00;0.00;;;;;;;;5059141;28;45577;-68
2023/01/11 01:56:55;;;;;;;;;2.50;0.00;;;;;;;;5058732;28;45433;-69
2023/01/11 01:59:21;;;;;;;;;1.00;0.00;;;;;;;;5058599;28;45525;-68
2023/01/11 02:01:46;;;;;;;;;1.00;0.00;;;;;;;;5058774;28;45471;-68
2023/01/11 02:04:23;;;;;;;;;0.00;0.00;;;;;;;;5058439;27;45300;-69
2023/01/11 02:06:51;;;;;;;;;0.00;0.00;;;;;;;;5058337;28;45679;-69
2023/01/11 02:09:17;;;;;;;;;0.20;0.00;;;;;;;;5058636;28;45306;-70
2023/01/11 02:11:42;;;;;;;;;0.00;0.00;;;;;;;;5058570;28;45441;-70
2023/01/11 02:14:13;;;;;;;;;0.00;0.00;;;;;;;;5058861;28;45308;-70
2023/01/11 02:16:38;;;;;;;;;0.00;0.00;;;;;;;;5058213;28;46399;-70
2023/01/11 02:19:06;;;;;;;;;0.00;0.00;;;;;;;;5058362;28;45162;-70
2023/01/11 02:21:49;;;;;;;;;0.25;0.00;;;;;;;;5062995;27;45366;-71
2023/01/11 02:24:40;;;;;;;;;0.00;0.00;;;;;;;;5079033;28;45509;-70
2023/01/11 02:27:38;;;;;;;;;0.00;0.00;;;;;;;;5078574;28;47367;-71
2023/01/11 02:30:21;;;;;;;;;0.00;0.00;;;;;;;;5015581;28;45499;-70
2023/01/11 02:32:57;;;;;;;;;0.00;0.00;;;;;;;;5015742;28;45531;-70
2023/01/11 02:35:32;;;;;;;;;0.00;0.00;;;;;;;;5016401;28;45511;-70
2023/01/11 02:38:15;;;;;;;;;0.00;0.00;;;;;;;;5015568;28;47092;-70
2023/01/11 02:40:49;;;;;;;;;1.40;0.00;;;;;;;;4996000;28;45392;-70
2023/01/11 02:46:20;;;;;;;;;0.00;0.00;;;;;;;;4995766;28;45400;-70
2023/01/11 02:49:03;;;;;;;;;0.00;0.00;;;;;;;;4995348;28;45637;-70
2023/01/11 02:51:37;;;;;;;;;0.00;0.00;;;;;;;;4995753;28;45505;-70
2023/01/11 02:54:04;;;;;;;;;2.00;0.00;;;;;;;;4996103;28;45441;-71
2023/01/11 02:56:32;;;;;;;;;0.00;0.00;;;;;;;;4981533;28;45255;-70
2023/01/11 02:58:59;;;;;;;;;0.00;0.00;;;;;;;;4975741;28;46470;-71
2023/01/11 03:01:25;;;;;;;;;0.60;0.20;;;;;;;;4976021;28;45526;-70
2023/01/11 03:03:51;;;;;;;;;0.00;0.00;;;;;;;;4975940;28;45354;-71
2023/01/11 03:06:21;;;;;;;;;0.00;0.00;;;;;;;;5005602;28;45453;-70
2023/01/11 03:08:55;;;;;;;;;0.00;0.00;;;;;;;;5015280;28;46647;-70
2023/01/11 03:14:39;;;;;;;;;0.00;0.00;;;;;;;;4956641;28;46599;-70
2023/01/11 03:17:17;;;;;;;;;0.25;0.25;;;;;;;;4956604;28;45577;-70
2023/01/11 03:19:45;;;;;;;;;1.25;1.00;;;;;;;;4955944;28;45810;-70
2023/01/11 03:22:10;;;;;;;;;0.00;0.00;;;;;;;;4968532;28;45381;-70
2023/01/11 03:24:36;;;;;;;;;0.00;0.00;;;;;;;;4975740;28;45486;-69
2023/01/11 03:27:04;;;;;;;;;0.00;0.00;;;;;;;;4975950;28;45492;-70
2023/01/11 03:29:29;;;;;;;;;0.00;0.00;;;;;;;;4991920;28;47038;-69
2023/01/11 03:32:03;;;;;;;;;0.00;0.00;;;;;;;;4995160;28;45461;-70
2023/01/11 03:34:44;;;;;;;;;1.00;0.00;;;;;;;;4995383;28;45481;-70
2023/01/11 03:37:13;;;;;;;;;1.25;0.00;;;;;;;;4995281;28;45540;-70
2023/01/11 03:39:54;;;;;;;;;2.00;0.00;;;;;;;;4995292;28;45558;-69
2023/01/11 03:42:20;;;;;;;;;0.00;0.00;;;;;;;;4994920;28;45496;-70
2023/01/11 03:44:49;;;;;;;;;0.00;0.00;;;;;;;;4994024;28;45471;-70
2023/01/11 03:47:16;;;;;;;;;0.00;0.00;;;;;;;;4995287;28;45351;-70
2023/01/11 03:49:47;;;;;;;;;2.75;0.00;;;;;;;;4994789;28;45371;-69
2023/01/11 03:52:14;;;;;;;;;0.00;0.00;;;;;;;;5032455;28;45562;-69
2023/01/11 03:54:40;;;;;;;;;0.00;0.00;;;;;;;;5037122;28;45519;-70
2023/01/11 03:57:14;;;;;;;;;0.00;0.00;;;;;;;;5037032;28;45419;-70
2023/01/11 03:59:40;;;;;;;;;1.00;1.00;;;;;;;;5035584;28;45662;-70
2023/01/11 04:02:13;;;;;;;;;0.25;0.25;;;;;;;;5055795;28;45322;-69
2023/01/11 04:04:38;;;;;;;;;4.00;1.00;;;;;;;;5056936;28;45403;-70
2023/01/11 04:07:04;;;;;;;;;3.25;1.00;;;;;;;;5057049;28;45496;-70
2023/01/11 04:09:29;;;;;;;;;1.75;1.75;;;;;;;;5056602;28;46188;-69
2023/01/11 04:11:54;;;;;;;;;1.75;1.00;;;;;;;;5056688;28;45335;-69
2023/01/11 04:14:19;;;;;;;;;3.00;1.75;;;;;;;;5056882;28;45356;-69
2023/01/11 04:16:44;;;;;;;;;4.50;2.00;;;;;;;;5056936;28;45488;-69
2023/01/11 04:19:10;;;;;;;;;3.00;1.25;;;;;;;;5043207;28;46290;-70
2023/01/11 04:21:35;;;;;;;;;6.50;2.25;;;;;;;;5036513;28;45403;-70
2023/01/11 04:24:00;;;;;;;;;3.00;2.00;;;;;;;;5036147;28;45376;-70
2023/01/11 04:26:25;;;;;;;;;8.25;2.00;;;;;;;;5036694;28;45352;-70
2023/01/11 04:28:50;;;;;;;;;1.25;1.00;;;;;;;;5036349;28;45628;-70
2023/01/11 04:31:15;;;;;;;;;3.75;1.00;;;;;;;;5052291;28;45289;-69
2023/01/11 04:33:41;;;;;;;;;2.50;1.00;;;;;;;;5056369;27;45584;-70
2023/01/11 04:36:07;;;;;;;;;5.25;1.25;;;;;;;;5056750;28;45574;-69
2023/01/11 04:38:33;;;;;;;;;3.25;2.00;;;;;;;;5056076;28;46222;-70
2023/01/11 04:43:42;;;;;;;;;4.25;3.00;;;;;;;;5056414;28;45166;-69
2023/01/11 04:46:09;;;;;;;;;1.50;1.00;;;;;;;;5056736;28;45432;-70
2023/01/11 04:48:35;;;;;;;;;5.75;1.00;;;;;;;;5056053;28;45649;-70
2023/01/11 04:51:00;;;;;;;;;4.00;2.00;;;;;;;;5055691;28;45401;-70
2023/01/11 04:53:25;;;;;;;;;1.50;1.00;;;;;;;;5056119;28;45455;-70
2023/01/11 04:55:52;;;;;;;;;3.50;1.25;;;;;;;;5056475;28;45423;-70
2023/01/11 04:58:17;;;;;;;;;4.25;1.75;;;;;;;;5056156;28;46264;-70
2023/01/11 05:00:42;;;;;;;;;6.00;3.00;;;;;;;;5056194;28;45565;-70
2023/01/11 05:03:07;;;;;;;;;4.00;2.00;;;;;;;;5056267;28;45444;-70
2023/01/11 05:05:33;;;;;;;;;3.25;2.25;;;;;;;;5056444;28;45345;-70
2023/01/11 05:07:58;;;;;;;;;2.25;1.25;;;;;;;;5055858;27;46392;-70
2023/01/11 05:10:23;;;;;;;;;4.75;1.75;;;;;;;;5057417;28;45333;-69
2023/01/11 05:12:49;;;;;;;;;3.75;1.00;;;;;;;;5059879;28;45276;-69
2023/01/11 05:15:15;;;;;;;;;4.75;2.00;;;;;;;;5059810;28;45203;-70
2023/01/11 05:17:40;;;;;;;;;2.50;0.00;;;;;;;;5059226;28;46773;-70
2023/01/11 05:20:05;;;;;;;;;4.50;2.00;;;;;;;;5059471;28;45393;-70
2023/01/11 05:22:30;;;;;;;;;8.00;2.00;;;;;;;;5065655;27;45724;-70
2023/01/11 05:24:56;;;;;;;;;1.75;1.75;;;;;;;;5079583;28;45504;-69
2023/01/11 05:27:21;;;;;;;;;4.00;1.50;;;;;;;;5079567;28;46121;-70
2023/01/11 05:29:46;;;;;;;;;7.00;2.00;;;;;;;;5079089;28;45519;-69
2023/01/11 05:32:11;;;;;;;;;3.00;1.00;;;;;;;;5079734;27;45387;-70
2023/01/11 05:34:36;;;;;;;;;8.50;1.50;;;;;;;;5079695;28;45457;-69
2023/01/11 05:37:02;;;;;;;;;9.00;1.25;;;;;;;;5079244;28;46427;-70
2023/01/11 05:39:27;;;;;;;;;5.00;2.00;;;;;;;;5070750;27;45456;-69
2023/01/11 05:41:52;;;;;;;;;2.00;1.00;;;;;;;;5059246;28;45403;-70
2023/01/11 05:45:27;;;;;;;;;7.50;1.00;;;;;;;;5059080;28;45651;-70
2023/01/11 05:47:18;;;;;;;;;3.50;1.00;;;;;;;;5058672;28;45419;-70
2023/01/11 05:49:43;;;;;;;;;1.00;1.00;;;;;;;;5058827;28;45657;-70
2023/01/11 05:52:08;;;;;;;;;10.00;1.75;;;;;;;;5058951;28;45408;-70
2023/01/11 05:54:33;;;;;;;;;2.50;2.25;;;;;;;;5058902;28;45435;-70
2023/01/11 05:56:58;;;;;;;;;3.00;0.50;;;;;;;;5058520;27;46227;-69
2023/01/11 05:59:25;;;;;;;;;3.75;0.75;;;;;;;;5058642;28;45427;-70
2023/01/11 06:01:50;;;;;;;;;1.00;1.00;;;;;;;;5058676;28;45380;-70
2023/01/11 06:04:16;;;;;;;;;3.00;2.00;;;;;;;;5058743;28;45530;-70
2023/01/11 06:06:41;;;;;;;;;2.00;2.00;;;;;;;;5058468;28;46185;-69
2023/01/11 06:09:06;;;;;;;;;5.00;1.00;;;;;;;;5058468;28;45304;-69
2023/01/11 06:11:31;;;;;;;;;3.75;2.25;;;;;;;;5058571;28;45875;-69
2023/01/11 06:13:57;;;;;;;;;4.25;1.75;;;;;;;;5075119;27;45418;-71
2023/01/11 06:16:22;;;;;;;;;5.75;3.25;;;;;;;;5078716;28;45409;-72
2023/01/11 06:18:49;;;;;;;;;5.75;2.50;;;;;;;;5078461;28;45399;-71
2023/01/11 06:21:14;;;;;;;;;4.75;3.00;;;;;;;;5078319;28;45380;-71
2023/01/11 06:23:42;;;;;;;;;4.25;2.00;;;;;;;;5078583;28;45508;-72
2023/01/11 06:26:09;;;;;;;;;7.00;3.00;;;;;;;;5078289;28;47272;-72
2023/01/11 06:28:35;;;;;;;;;7.00;3.00;;;;;;;;5078137;28;45636;-72
2023/01/11 06:31:00;;;;;;;;;3.50;2.00;;;;;;;;5072463;27;45583;-72
2023/01/11 06:33:26;;;;;;;;;1.75;1.75;;;;;;;;5058337;28;45785;-73
2023/01/11 06:35:52;;;;;;;;;4.50;3.00;;;;;;;;5068696;28;46857;-72
2023/01/11 06:38:17;;;;;;;;;8.00;2.00;;;;;;;;5069120;28;45431;-72
2023/01/11 06:40:43;;;;;;;;;2.00;2.00;;;;;;;;5076918;28;45424;-72
2023/01/11 06:43:08;;;;;;;;;3.25;1.25;;;;;;;;5078212;28;45457;-72
2023/01/11 06:45:37;;;;;;;;;6.00;2.25;;;;;;;;5078309;28;45429;-73
2023/01/11 06:48:02;;;;;;;;;6.75;2.75;;;;;;;;5077966;28;45530;-72
2023/01/11 06:50:27;;;;;;;;;3.00;3.00;;;;;;;;5060665;27;45502;-72
2023/01/11 06:52:56;;;;;;;;;7.75;3.75;;;;;;;;5058257;28;45597;-72
2023/01/11 06:55:22;;;;;;;;;3.50;2.50;;;;;;;;5057562;28;46462;-72
2023/01/11 06:57:48;;;;;;;;;4.00;2.00;;;;;;;;5058189;28;45201;-72
2023/01/11 07:00:13;;;;;;;;;2.50;1.00;;;;;;;;5058060;28;45423;-72
2023/01/11 07:02:39;;;;;;;;;6.00;3.00;;;;;;;;5058003;28;45190;-72
2023/01/11 07:05:04;;;;;;;;;4.75;3.00;;;;;;;;5057307;28;45584;-72
2023/01/11 07:07:29;;;;;;;;;3.50;2.25;;;;;;;;5057013;28;45526;-72
2023/01/11 07:09:55;;;;;;;;;5.00;2.50;;;;;;;;5057944;28;45298;-72
2023/01/11 07:12:20;;;;;;;;;5.25;1.50;;;;;;;;5058118;28;45403;-72
2023/01/11 07:14:45;;;;;;;;;4.50;2.75;;;;;;;;5057647;28;46612;-72
2023/01/11 07:17:10;;;;;;;;;2.25;1.75;;;;;;;;5057443;27;45379;-72
2023/01/11 07:19:35;;;;;;;;;3.25;2.75;;;;;;;;5057713;28;45555;-71
2023/01/11 07:22:01;;;;;;;;;7.75;2.75;;;;;;;;5057765;28;45399;-72
2023/01/11 07:24:26;;;;;;;;;15.00;2.00;;;;;;;;5057483;28;46376;-72
2023/01/11 07:26:52;;;;;;;;;6.50;1.50;;;;;;;;5057466;28;45444;-71
2023/01/11 07:29:17;;;;;;;;;4.00;1.00;;;;;;;;5057499;28;45396;-71
2023/01/11 07:31:42;;;;;;;;;5.75;2.00;;;;;;;;5057477;28;45437;-71
2023/01/11 07:34:08;;;;;;;;;8.25;3.25;;;;;;;;5057194;27;46252;-70
2023/01/11 07:36:38;;;;;;;;;2.50;1.00;;;;;;;;5039031;28;45423;-71
2023/01/11 07:39:03;;;;;;;;;4.50;3.50;;;;;;;;5057580;28;45404;-72
2023/01/11 07:44:12;;;;;;;;;4.50;3.00;;;;;;;;5057071;28;45817;-72
2023/01/11 07:46:37;;;;;;;;;3.75;2.00;;;;;;;;5058188;27;45400;-72
2023/01/11 07:49:02;;;;;;;;;5.75;2.50;;;;;;;;5077734;28;45511;-71
2023/01/11 07:51:28;;;;;;;;;7.75;5.00;;;;;;;;5077693;28;45291;-72
2023/01/11 07:53:53;;;;;;;;;3.00;1.75;;;;;;;;5076184;28;46467;-72
2023/01/11 07:56:18;;;;;;;;;3.25;2.00;;;;;;;;5076415;28;45444;-68
2023/01/11 07:58:43;;;;;;;;;10.75;3.00;;;;;;;;5068723;27;45472;-68
2023/01/11 08:01:08;;;;;;;;;7.00;4.00;;;;;;;;5076444;28;45368;-68
2023/01/11 08:03:34;;;;;;;;;6.25;4.50;;;;;;;;5066291;28;46275;-68
2023/01/11 08:05:59;;;;;;;;;8.00;4.00;;;;;;;;5064058;28;45404;-68
2023/01/11 08:08:24;;;;;;;;;7.00;4.50;;;;;;;;5076918;28;45576;-68
2023/01/11 08:16:17;;;;;;;;;7.50;3.00;;;;;;;;5076849;28;45400;-68
2023/01/11 08:18:42;;;;;;;;;6.75;2.50;;;;;;;;5076459;28;45536;-67
2023/01/11 08:21:07;;;;;;;;;5.00;3.25;;;;;;;;5075094;27;45447;-68
2023/01/11 08:23:33;;;;;;;;;8.50;5.50;;;;;;;;5076487;28;46559;-68
2023/01/11 08:25:58;;;;;;;;;5.50;3.75;;;;;;;;5075965;28;45379;-68
2023/01/11 08:28:23;;;;;;;;;5.75;3.50;;;;;;;;5076711;28;45441;-68
2023/01/11 08:30:48;;;;;;;;;8.50;5.75;;;;;;;;5076341;28;45513;-68
2023/01/11 08:33:14;;;;;;;;;6.00;5.00;;;;;;;;5076155;28;47305;-68
2023/01/11 08:35:39;;;;;;;;;6.25;2.75;;;;;;;;5075755;27;45783;-68
2023/01/11 08:38:04;;;;;;;;;4.50;4.50;;;;;;;;5076130;27;45340;-68
2023/01/11 08:40:30;;;;;;;;;11.75;4.50;;;;;;;;5075652;28;45506;-68
2023/01/11 08:42:55;;;;;;;;;8.50;4.50;;;;;;;;5076253;27;45642;-69
2023/01/11 08:45:21;;;;;;;;;8.00;5.00;;;;;;;;5076410;28;45564;-69
2023/01/11 08:47:47;;;;;;;;;15.25;6.25;;;;;;;;5078554;27;45555;-69
2023/01/11 08:50:15;;;;;;;;;8.00;4.00;;;;;;;;5078479;27;45409;-68
2023/01/11 08:52:42;;;;;;;;;7.25;3.25;;;;;;;;5079513;28;46440;-69
2023/01/11 08:55:07;;;;;;;;;5.75;3.50;;;;;;;;5079556;27;45387;-70
2023/01/11 08:57:33;;;;;;;;;8.75;5.00;;;;;;;;5079238;28;45411;-69
2023/01/11 08:59:58;;;;;;;;;14.50;3.00;;;;;;;;5078796;28;45458;-68
2023/01/11 09:02:23;;;;;;;;;7.50;3.00;;;;;;;;5078700;27;46048;-69
2023/01/11 09:04:48;;;;;;;;;6.25;3.00;;;;;;;;5079210;27;45343;-68
2023/01/11 09:07:14;;;;;;;;;7.00;4.50;;;;;;;;5079644;28;45835;-67
2023/01/11 09:09:39;;;;;;;;;5.50;3.00;;;;;;;;5079637;28;45431;-67
2023/01/11 09:12:04;;;;;;;;;6.25;2.50;;;;;;;;5079171;27;45406;-68
2023/01/11 09:14:30;;;;;;;;;7.75;5.00;;;;;;;;5078713;27;45459;-69
2023/01/11 09:16:55;;;;;;;;;8.75;3.50;;;;;;;;5079389;28;45417;-68
2023/01/11 09:19:20;;;;;;;;;5.50;4.75;;;;;;;;5079534;28;45430;-68
2023/01/11 09:21:46;;;;;;;;;12.50;4.50;;;;;;;;5078302;27;45509;-68
2023/01/11 09:24:11;;;;;;;;;6.00;3.00;;;;;;;;5078703;27;45434;-70
2023/01/11 09:26:37;;;;;;;;;5.00;3.75;;;;;;;;5079435;28;45380;-69
2023/01/11 09:29:03;;;;;;;;;3.25;1.75;;;;;;;;5082352;27;45495;-68
2023/01/11 09:31:28;;;;;;;;;6.00;4.00;;;;;;;;5078990;27;45501;-68
2023/01/11 09:33:53;;;;;;;;;7.00;3.75;;;;;;;;5079238;28;45522;-68
2023/01/11 09:36:20;;;;;;;;;6.75;3.25;;;;;;;;5078928;28;45427;-68
2023/01/11 09:38:47;;;;;;;;;8.25;3.00;;;;;;;;5078461;27;45420;-68
2023/01/11 09:41:12;;;;;;;;;5.00;2.25;;;;;;;;5078950;27;45419;-68
2023/01/11 09:43:44;;;;;;;;;4.00;3.25;;;;;;;;5078379;28;45355;-68
2023/01/11 09:46:11;;;;;;;;;3.00;3.00;;;;;;;;5077947;27;45505;-68
2023/01/11 09:48:45;;;;;;;;;4.25;1.75;;;;;;;;5076848;27;45628;-68
2023/01/11 09:51:14;;;;;;;;;9.50;5.00;;;;;;;;5077972;28;45480;-68
2023/01/11 09:53:44;;;;;;;;;7.50;4.00;;;;;;;;5078258;28;45490;-67
2023/01/11 09:56:11;;;;;;;;;7.00;3.25;;;;;;;;5077137;27;45494;-67
2023/01/11 09:58:49;;;;;;;;;11.50;4.00;;;;;;;;5078190;28;45736;-68
2023/01/11 10:01:21;;;;;;;;;8.00;6.25;;;;;;;;5078191;28;46605;-68
2023/01/11 10:04:11;;;;;;;;;8.50;5.50;;;;;;;;5078503;27;45529;-68
2023/01/11 10:06:57;;;;;;;;;12.50;3.50;;;;;;;;4999530;28;45546;-68
2023/01/11 10:09:23;;;;;;;;;4.50;3.25;;;;;;;;4996277;28;45448;-68
2023/01/11 10:11:54;;;;;;;;;7.00;3.25;;;;;;;;5002984;28;47355;-68
2023/01/11 10:14:39;;;;;;;;;4.50;2.75;;;;;;;;4999565;28;45589;-69
2023/01/11 10:17:05;;;;;;;;;13.75;8.00;;;;;;;;5010946;28;45459;-68
2023/01/11 10:19:37;;;;;;;;;5.00;3.25;;;;;;;;4999364;28;45508;-68
2023/01/11 10:22:07;;;;;;;;;5.00;2.25;;;;;;;;4995430;28;46494;-67
2023/01/11 10:24:39;;;;;;;;;3.00;2.00;;;;;;;;4999764;28;45455;-67
2023/01/11 10:27:10;;;;;;;;;8.00;3.00;;;;;;;;5015619;28;45515;-68
2023/01/11 10:29:56;;;;;;;;;8.25;4.50;;;;;;;;5014802;28;45595;-68
2023/01/11 10:32:39;;;;;;;;;8.75;4.50;;;;;;;;5014349;28;46449;-68
2023/01/11 10:35:28;;;;;;;;;6.25;4.00;;;;;;;;5015361;28;45381;-68
2023/01/11 10:40:36;;;;;;;;;13.50;5.00;;;;;;;;5015588;28;45538;-68
2023/01/11 10:43:07;;;;;;;;;7.50;6.00;;;;;;;;5023745;28;46230;-67
2023/01/11 10:45:47;;;;;;;;;7.75;5.00;;;;;;;;5057493;28;45427;-67
2023/01/11 10:48:17;;;;;;;;;7.25;3.50;;;;;;;;5057351;28;45759;-67
2023/01/11 10:50:47;;;;;;;;;8.00;5.00;;;;;;;;5057629;28;45506;-68
2023/01/11 10:53:16;;;;;;;;;7.50;3.00;;;;;;;;5057516;28;45547;-68
2023/01/11 10:56:01;;;;;;;;;7.50;6.00;;;;;;;;5064825;28;45505;-68
2023/01/11 10:58:29;;;;;;;;;3.50;1.75;;;;;;;;5075054;27;45785;-67
2023/01/11 11:01:17;;;;;;;;;6.00;2.25;;;;;;;;5077732;28;45729;-68
2023/01/11 11:04:01;;;;;;;;;9.75;4.00;;;;;;;;5076868;28;46222;-67
2023/01/11 11:06:44;;;;;;;;;18.50;10.00;;;;;;;;5076763;28;45569;-67
2023/01/11 11:09:10;;;;;;;;;9.00;5.75;;;;;;;;5076373;27;45466;-67
2023/01/11 11:11:57;;;;;;;;;5.00;2.00;;;;;;;;5077424;28;45566;-67
2023/01/11 11:14:25;;;;;;;;;7.50;4.00;;;;;;;;5056824;27;46251;-67
2023/01/11 11:17:03;;;;;;;;;2.25;2.25;;;;;;;;5056697;28;45514;-67
2023/01/11 11:19:31;;;;;;;;;2.50;2.00;;;;;;;;5060097;28;45442;-67
2023/01/11 11:21:56;;;;;;;;;3.00;2.00;;;;;;;;5076890;27;45304;-67
2023/01/11 11:24:31;;;;;;;;;0.50;0.00;;;;;;;;5076339;28;45455;-67
2023/01/11 11:26:59;;;;;;;;;2.00;1.00;;;;;;;;5056855;28;45776;-68
2023/01/11 11:29:29;;;;;;;;;4.00;3.00;;;;;;;;5056812;28;45734;-67
2023/01/11 11:31:55;;;;;;;;;7.00;3.00;;;;;;;;5063026;27;45449;-67
2023/01/11 11:34:21;;;;;;;;;4.00;2.00;;;;;;;;5076666;28;45378;-67
2023/01/11 11:36:48;;;;;;;;;0.75;0.00;;;;;;;;5077019;28;45392;-67
2023/01/11 11:39:27;;;;;;;;;2.75;1.00;;;;;;;;5076666;27;45523;-67
2023/01/11 11:41:56;;;;;;;;;4.75;1.00;;;;;;;;5075539;27;45594;-68
2023/01/11 11:44:26;;;;;;;;;7.00;2.00;;;;;;;;5054823;28;46428;-67
2023/01/11 11:47:01;;;;;;;;;6.50;2.25;;;;;;;;5087578;27;45463;-68
2023/01/11 11:49:30;;;;;;;;;5.00;3.00;;;;;;;;5087186;27;45447;-67
2023/01/11 11:51:57;;;;;;;;;6.00;2.00;;;;;;;;5077289;27;45393;-67
2023/01/11 11:54:47;;;;;;;;;4.75;1.50;;;;;;;;5076482;27;46267;-67
2023/01/11 11:57:20;;;;;;;;;3.00;3.00;;;;;;;;5076897;27;45419;-67
2023/01/11 11:59:47;;;;;;;;;5.75;2.75;;;;;;;;5086717;27;45474;-67
2023/01/11 12:02:26;;;;;;;;;2.50;1.25;;;;;;;;5077104;28;45428;-68
2023/01/11 12:04:52;;;;;;;;;3.50;2.00;;;;;;;;5074404;27;45607;-68
2023/01/11 12:07:22;;;;;;;;;5.75;2.00;;;;;;;;5075721;28;45470;-68
2023/01/11 12:09:54;;;;;;;;;2.25;2.00;;;;;;;;5077307;28;45376;-68
2023/01/11 12:12:20;;;;;;;;;4.50;1.00;;;;;;;;5077399;28;45394;-68
2023/01/11 12:15:04;;;;;;;;;6.25;2.00;;;;;;;;5076571;28;45495;-68
2023/01/11 12:17:30;;;;;;;;;1.00;1.00;;;;;;;;5076680;28;45385;-68
2023/01/11 12:19:55;;;;;;;;;5.00;2.75;;;;;;;;5077739;28;45482;-68
2023/01/11 12:22:22;;;;;;;;;2.50;1.50;;;;;;;;5080643;27;45432;-68
2023/01/11 12:25:06;;;;;;;;;3.00;1.00;;;;;;;;5080436;28;46418;-68
2023/01/11 12:27:34;;;;;;;;;4.00;2.00;;;;;;;;5080242;27;45474;-68
2023/01/11 12:30:03;;;;;;;;;6.00;1.00;;;;;;;;5080022;27;45483;-68
2023/01/11 12:32:47;;;;;;;;;2.25;2.25;;;;;;;;5080599;28;45476;-68
2023/01/11 12:35:18;;;;;;;;;5.25;2.00;;;;;;;;5080299;27;47467;-68
2023/01/11 12:37:52;;;;;;;;;6.25;2.00;;;;;;;;5079964;28;45488;-68
2023/01/11 12:40:26;;;;;;;;;5.25;4.00;;;;;;;;5080170;28;45340;-72
2023/01/11 12:42:54;;;;;;;;;4.25;0.50;;;;;;;;5080606;27;45448;-71
2023/01/11 12:45:26;;;;;;;;;6.50;1.50;;;;;;;;5080449;28;46429;-71
2023/01/11 12:47:57;;;;;;;;;3.00;2.00;;;;;;;;5080442;28;45447;-71
2023/01/11 12:50:23;;;;;;;;;3.25;1.50;;;;;;;;5080309;28;45587;-72
2023/01/11 12:53:07;;;;;;;;;3.50;1.25;;;;;;;;5080794;28;45416;-72
2023/01/11 12:55:42;;;;;;;;;3.75;1.00;;;;;;;;5080131;28;45597;-71
2023/01/11 12:58:43;;;;;;;;;2.50;0.75;;;;;;;;5080167;27;45478;-72
2023/01/11 13:01:16;;;;;;;;;2.00;0.50;;;;;;;;5017719;28;45258;-72
2023/01/11 13:03:57;;;;;;;;;2.00;1.00;;;;;;;;5017675;28;45560;-71
2023/01/11 13:06:30;;;;;;;;;7.00;1.25;;;;;;;;5017288;28;46561;-71
2023/01/11 13:08:55;;;;;;;;;4.25;2.25;;;;;;;;5017492;28;45302;-69
2023/01/11 13:11:34;;;;;;;;;2.00;1.00;;;;;;;;5017467;28;45539;-70
2023/01/11 13:14:17;;;;;;;;;1.00;0.00;;;;;;;;5017805;28;45437;-70
2023/01/11 13:16:54;;;;;;;;;0.75;0.50;;;;;;;;5017013;28;46048;-71
2023/01/11 13:19:29;;;;;;;;;2.40;0.80;;;;;;;;5017073;28;45385;-70
2023/01/11 13:21:55;;;;;;;;;4.00;2.00;;;;;;;;5017437;28;45491;-70
2023/01/11 13:24:26;;;;;;;;;8.75;4.00;;;;;;;;5017492;28;45357;-71
2023/01/11 13:26:56;;;;;;;;;5.75;2.00;;;;;;;;5016869;28;46546;-71
2023/01/11 13:29:36;;;;;;;;;3.75;3.00;;;;;;;;5016690;28;45397;-71
2023/01/11 13:32:04;;;;;;;;;4.50;1.50;;;;;;;;4997269;28;45362;-71
2023/01/11 13:34:45;;;;;;;;;5.75;1.25;;;;;;;;5007317;28;45488;-70
2023/01/11 13:37:37;;;;;;;;;1.50;1.00;;;;;;;;5038802;28;45456;-70
2023/01/11 13:40:22;;;;;;;;;7.00;3.25;;;;;;;;5036476;28;45622;-69
2023/01/11 13:42:50;;;;;;;;;5.75;1.00;;;;;;;;5030241;28;45487;-70
2023/01/11 13:45:33;;;;;;;;;3.25;1.00;;;;;;;;5038683;28;45402;-71
2023/01/11 13:48:12;;;;;;;;;4.00;2.00;;;;;;;;5038867;28;45490;-69
2023/01/11 13:50:41;;;;;;;;;4.00;1.50;;;;;;;;5039163;28;45476;-70
2023/01/11 13:53:18;;;;;;;;;3.75;2.00;;;;;;;;5039078;28;45468;-69
2023/01/11 13:55:55;;;;;;;;;2.00;2.00;;;;;;;;5037760;28;45544;-70
2023/01/11 13:58:22;;;;;;;;;6.75;3.00;;;;;;;;5038062;28;46499;-70
2023/01/11 14:01:00;;;;;;;;;4.00;1.00;;;;;;;;5037993;28;45332;-70
2023/01/11 14:03:32;;;;;;;;;4.25;1.00;;;;;;;;5038439;28;45278;-71
2023/01/11 14:06:04;;;;;;;;;6.75;4.50;;;;;;;;5038838;28;45460;-71
2023/01/11 14:08:35;;;;;;;;;12.50;2.25;;;;;;;;5037929;28;46662;-69
2023/01/11 14:11:12;;;;;;;;;6.25;2.00;;;;;;;;5038083;28;45992;-68
2023/01/11 14:16:42;;;;;;;;;10.00;2.75;;;;;;;;5038270;28;45310;-70
2023/01/11 14:19:14;;;;;;;;;1.00;1.00;;;;;;;;5037810;28;45465;-71
2023/01/11 14:21:46;;;;;;;;;4.00;2.00;;;;;;;;5038118;28;45254;-69
2023/01/11 14:24:12;;;;;;;;;3.00;1.00;;;;;;;;5038568;28;45489;-67
2023/01/11 14:26:38;;;;;;;;;7.25;1.50;;;;;;;;5038246;28;45403;-67
2023/01/11 14:29:06;;;;;;;;;2.00;2.00;;;;;;;;5037902;28;45606;-70
2023/01/11 14:31:37;;;;;;;;;3.75;2.00;;;;;;;;5074083;28;45434;-71
2023/01/11 14:34:05;;;;;;;;;3.00;1.00;;;;;;;;5078453;28;45310;-71
2023/01/11 14:36:33;;;;;;;;;2.00;1.00;;;;;;;;5078502;28;45610;-71
2023/01/11 14:39:06;;;;;;;;;6.00;2.75;;;;;;;;5078265;27;47340;-71
2023/01/11 14:41:47;;;;;;;;;2.00;1.00;;;;;;;;5078151;28;45360;-70
2023/01/11 14:44:21;;;;;;;;;4.25;1.00;;;;;;;;5077362;28;45716;-70
2023/01/11 14:46:46;;;;;;;;;1.00;1.00;;;;;;;;5078396;28;45377;-70
2023/01/11 14:49:30;;;;;;;;;2.75;1.00;;;;;;;;5078089;28;45413;-70
2023/01/11 14:51:59;;;;;;;;;3.25;1.00;;;;;;;;5078336;28;45775;-71
2023/01/11 14:54:30;;;;;;;;;1.00;0.50;;;;;;;;5078287;28;45295;-71
2023/01/11 14:56:56;;;;;;;;;1.00;1.00;;;;;;;;5078590;28;45453;-70
2023/01/11 14:59:32;;;;;;;;;4.00;2.25;;;;;;;;5077714;28;45443;-70
2023/01/11 15:02:03;;;;;;;;;1.60;0.00;;;;;;;;5077839;28;45432;-69
2023/01/11 15:04:36;;;;;;;;;2.50;1.00;;;;;;;;5078349;28;45486;-70
2023/01/11 15:07:20;;;;;;;;;5.25;1.25;;;;;;;;5078430;28;45417;-70
2023/01/11 15:09:49;;;;;;;;;2.50;1.00;;;;;;;;5077956;28;45492;-70
2023/01/11 15:12:16;;;;;;;;;8.25;5.50;;;;;;;;5077965;28;45328;-72
2023/01/11 15:14:53;;;;;;;;;2.00;0.00;;;;;;;;5078226;28;45296;-70
2023/01/11 15:20:11;;;;;;;;;7.50;1.50;;;;;;;;5077859;27;45785;-69
2023/01/11 15:22:36;;;;;;;;;1.00;1.00;;;;;;;;5077902;28;45434;-70
2023/01/11 15:25:20;;;;;;;;;4.75;1.50;;;;;;;;5078084;28;45485;-70
2023/01/11 15:27:46;;;;;;;;;3.25;2.25;;;;;;;;5078297;28;45431;-70
2023/01/11 15:30:29;;;;;;;;;1.75;1.75;;;;;;;;5077330;28;47265;-70